CheckWX is a tool to help pilots better visualize weather data.  It is not intended as a substitute for an official pre-flight weather briefing.

16:51:03 UTC

KSWO METAR
Stillwater Regional Airport
Stillwater, Oklahoma, USA
Current

58 mins ago

KSWO 221553Z 02016G21KT 10SM SCT023 OVC033 27/19 A3013 RMK AO2 SLP188 T02720194
Observed
Jul-22 @ 15:53 UTC
Wind
  • 020° at 16 KTS
  • Gusting to 21 KTS
Visibility
10 SM
Flight Rules
VFR
Cloud Levels
  • Scattered at 2,300' AGL
  • Overcast at 3,300' AGL
Temperature
27°C / 81°F
Dewpoint
19°C / 66°F
Heat Index
28°C / 83°F
Humidity
62%
Altimeter
30.13" Hg
Pressure
1020.32 hPa
Previous

2 hours ago

KSWO 221453Z 35010KT 10SM OVC021 24/19 A3012 RMK AO2 SLP187 T02440194 51017
Observed
Jul-22 @ 14:53 UTC
Wind
  • 350° at 10 KTS
Visibility
10 SM
Flight Rules
MVFR
Cloud Levels
  • Overcast at 2,100' AGL
Temperature
24°C / 75°F
Dewpoint
19°C / 66°F
Humidity
74%
Altimeter
30.12" Hg
Pressure
1020.02 hPa
Previous

3 hours ago

KSWO 221353Z 36009KT 10SM BKN017 OVC025 24/20 A3011 RMK AO2 SLP184 T02440200
Observed
Jul-22 @ 13:53 UTC
Wind
  • 360° at 9 KTS
Visibility
10 SM
Flight Rules
MVFR
Cloud Levels
  • Broken at 1,700' AGL
  • Overcast at 2,500' AGL
Temperature
24°C / 75°F
Dewpoint
20°C / 68°F
Humidity
78%
Altimeter
30.11" Hg
Pressure
1019.62 hPa